Flexuvium Australe, IN (46556)

03:02 AM EST die 18o November, anno 2017 (GMT -0500)
River Park South Bend IN | | Change Station

Elev 725 ft 41.67 °N, 86.21 °W | Updated 4 seconds ago

Pluvia
Pluvia
44.1 °F
Feels Like 44 °F
N
0.0
Ventus Variabilis Ventus from Magis Zephyrus quam Auster
Gusts 2.5 mph

Hodie
High -- | Low -- °F
--% Chance of Precip.
Yesterday
High -- | Low -- °F
Precip. -- in
Pressio 29.59 in
Visibilitas 5.0 milia passuum
Clouds Aequaliter Nubila 2100 ft
Frigus Venti 44 °F
Frigus in quo Ros apparet 42 °F
Umor 92%
Rainfall 0.07 in
Snow Depth Not available.
7:38 AM 5:21 PM
Waning Crescent, 0% visible
METAR KSBN 180754Z AUTO 00000KT 5SM BR OVC021 06/06 A2957 RMK AO2 RAE54 SLP018 P0002 T00610061 $
Pressio 29.59 in
Visibilitas 5.0 milia passuum
Clouds Aequaliter Nubila 2100 ft
Frigus Venti 44 °F
Frigus in quo Ros apparet 42 °F
Umor 92%
Rainfall 0.07 in
Snow Depth Not available.
7:38 AM 5:21 PM
Waning Crescent, 0% visible
METAR KSBN 180754Z AUTO 00000KT 5SM BR OVC021 06/06 A2957 RMK AO2 RAE54 SLP018 P0002 T00610061 $

Get Severe Weather Alerts

Thanks for signing up!

Be on the lookout for a verification email in your inbox.

You'll start receiving the daily forecast at 6 AM.

×

10-Day Weather Forecast

Almanac

Astronomy

Nov. 18, 2017 Rise Set
Actual Time
Civil Twilight
Nautical Twilight
Astronomical Twilight
Moon
Length Of Visible Light
Length of Day
Tomorrow will be .
, % of the Moon is Illuminated

Today's Extremes

State Highs State Lows

Community

WunderPhotos

Category 6

Welcome to Category 6. This is the collective home for Weather Underground's featured writeups by Dr. Jeff Masters (right), Bob Henson (left), Chris Burt, and other regular contributors.

Nearby

Air Quality

  Air Quality AQ Index Pollutant
Not available.

Snow Depth

Station Depth Elevation

Earthquake Activity

City Distance Mag. Time & Date
Minimum magnitude displayed is 2.5.

Coastal Water Temperatures

Locus Calor

Stations

Nearby Weather Stations

Station Location Temp Frigus Venti Frigus in quo Ros apparet Umor Ventus Precip. Elev Renovata Type
                   

Watches & Warnings

There are currently no watches in effect.